createdAt,value
2019-04-22T00:00:25.765Z,29.00
2019-04-22T00:01:27.081Z,32.30
2019-04-22T00:02:22.655Z,32.80
2019-04-22T00:03:27.381Z,30.50
2019-04-22T00:04:36.980Z,29.30
2019-04-22T00:05:42.868Z,28.10
2019-04-22T00:06:48.469Z,31.10
2019-04-22T00:07:48.921Z,27.90
2019-04-22T00:08:50.673Z,28.20
2019-04-22T00:09:54.940Z,29.90
2019-04-22T00:10:50.245Z,27.20
2019-04-22T00:12:00.386Z,30.30
2019-04-22T00:12:47.072Z,28.90
2019-04-22T00:14:42.295Z,27.20
2019-04-22T00:15:41.817Z,29.40
2019-04-22T00:17:57.054Z,27.40
2019-04-22T00:19:01.806Z,26.00
2019-04-22T00:19:53.840Z,28.90
2019-04-22T00:20:56.249Z,27.90
2019-04-22T00:21:46.085Z,26.60
2019-04-22T00:22:44.606Z,29.80
2019-04-22T00:23:49.982Z,25.50
2019-04-22T00:24:47.918Z,26.80
2019-04-22T00:25:48.323Z,26.90
2019-04-22T00:26:50.186Z,32.60
2019-04-22T00:27:47.894Z,26.60
2019-04-22T00:28:50.085Z,27.90
2019-04-22T00:30:00.354Z,28.30
2019-04-22T00:30:51.315Z,29.30
2019-04-22T00:31:45.877Z,25.90
2019-04-22T00:32:43.354Z,27.60
2019-04-22T00:33:50.153Z,28.20
2019-04-22T00:34:44.501Z,26.50
2019-04-22T00:35:51.093Z,26.70
2019-04-22T00:36:52.543Z,29.00
2019-04-22T00:37:52.711Z,27.20
2019-04-22T00:38:51.620Z,26.10
2019-04-22T00:39:48.864Z,29.50
2019-04-22T00:40:45.038Z,26.60
2019-04-22T00:41:48.727Z,27.20
2019-04-22T00:42:47.235Z,26.10
2019-04-22T00:43:53.034Z,28.70
2019-04-22T00:44:45.168Z,30.50
2019-04-22T00:46:01.114Z,27.70
2019-04-22T00:47:46.260Z,28.00
2019-04-22T00:49:05.792Z,28.70
2019-04-22T00:50:55.742Z,27.90
2019-04-22T00:51:52.409Z,28.50
2019-04-22T00:52:47.435Z,28.40
2019-04-22T00:53:48.124Z,29.00
2019-04-22T00:54:55.795Z,26.60
2019-04-22T00:55:51.176Z,28.60
2019-04-22T00:56:50.764Z,28.50
2019-04-22T00:57:46.369Z,28.30
2019-04-22T00:58:46.434Z,27.90
2019-04-22T00:59:48.510Z,28.70
2019-04-22T01:00:44.393Z,26.20
2019-04-22T01:01:42.985Z,28.20
2019-04-22T01:02:49.701Z,26.70
2019-04-22T01:04:49.059Z,29.70
2019-04-22T01:05:51.061Z,28.40
2019-04-22T01:06:44.292Z,26.40
2019-04-22T01:07:44.592Z,25.10
2019-04-22T01:08:53.658Z,27.10
2019-04-22T01:09:51.778Z,27.00
2019-04-22T01:10:49.942Z,29.70
2019-04-22T01:11:47.113Z,36.80
2019-04-22T01:12:44.260Z,30.60
2019-04-22T01:13:45.610Z,30.80
2019-04-22T01:14:49.540Z,27.20
2019-04-22T01:15:47.822Z,27.70
2019-04-22T01:16:48.593Z,31.80
2019-04-22T01:17:45.448Z,61.60
2019-04-22T01:18:45.818Z,27.30
2019-04-22T01:19:52.659Z,27.00
2019-04-22T01:21:44.782Z,27.10
2019-04-22T01:22:45.456Z,27.10
2019-04-22T01:23:40.820Z,28.60
2019-04-22T01:24:40.505Z,27.80
2019-04-22T01:25:42.100Z,28.00
2019-04-22T01:26:41.787Z,29.50
2019-04-22T01:27:39.260Z,26.80
2019-04-22T01:28:38.713Z,29.70
2019-04-22T01:29:37.541Z,25.90
2019-04-22T01:30:32.683Z,23.40
2019-04-22T01:31:26.886Z,25.70
2019-04-22T01:32:23.918Z,28.20
2019-04-22T01:33:29.163Z,27.90
2019-04-22T01:34:36.374Z,27.30
2019-04-22T01:35:37.473Z,27.20
2019-04-22T01:36:45.683Z,24.80
2019-04-22T01:37:44.359Z,26.80
2019-04-22T01:38:46.910Z,25.40
2019-04-22T01:39:50.135Z,26.10
2019-04-22T01:40:58.626Z,24.10
2019-04-22T01:41:55.088Z,26.40
2019-04-22T01:42:53.550Z,25.10
2019-04-22T01:43:53.667Z,31.00
2019-04-22T01:44:49.090Z,27.40
2019-04-22T01:45:45.045Z,27.00
2019-04-22T01:47:03.431Z,27.40
2019-04-22T01:48:05.272Z,27.50
2019-04-22T01:48:47.680Z,24.40
2019-04-22T01:49:46.400Z,24.10
2019-04-22T01:50:48.553Z,25.70
2019-04-22T01:51:58.594Z,26.30
2019-04-22T01:52:53.243Z,24.90
2019-04-22T01:53:54.762Z,25.20
2019-04-22T01:54:51.530Z,23.40
2019-04-22T01:55:59.041Z,24.80
2019-04-22T01:56:51.360Z,24.70
2019-04-22T01:59:51.978Z,27.40
2019-04-22T02:00:59.931Z,26.90
2019-04-22T02:02:02.565Z,23.60
2019-04-22T02:03:04.219Z,24.50
2019-04-22T02:04:01.254Z,25.00
2019-04-22T02:05:04.805Z,25.20
2019-04-22T02:06:02.427Z,24.50
2019-04-22T02:07:02.196Z,30.00
2019-04-22T02:08:04.107Z,24.30
2019-04-22T02:09:09.537Z,23.90
2019-04-22T02:10:08.707Z,25.70
2019-04-22T02:11:04.213Z,25.60
2019-04-22T02:13:01.973Z,23.20
2019-04-22T02:14:09.154Z,26.20
2019-04-22T02:15:00.753Z,23.90
2019-04-22T02:17:04.667Z,24.00
2019-04-22T02:18:01.313Z,25.90
2019-04-22T02:19:01.180Z,23.90
2019-04-22T02:20:06.651Z,21.80
2019-04-22T02:21:03.060Z,24.00
2019-04-22T02:22:04.001Z,23.50
2019-04-22T02:23:16.013Z,24.60
2019-04-22T02:24:21.819Z,22.80
2019-04-22T02:25:06.721Z,22.80
2019-04-22T02:26:09.060Z,22.70
2019-04-22T02:27:09.256Z,23.30
2019-04-22T02:28:11.630Z,24.50
2019-04-22T02:29:03.290Z,23.90
2019-04-22T02:29:57.942Z,23.50
2019-04-22T02:31:25.979Z,27.70
2019-04-22T02:32:28.102Z,20.70
2019-04-22T02:33:44.165Z,21.50
2019-04-22T02:36:19.265Z,25.80
2019-04-22T02:37:03.139Z,21.00
2019-04-22T02:38:10.045Z,21.10
2019-04-22T02:39:07.517Z,20.40
2019-04-22T02:40:09.695Z,19.20
2019-04-22T02:42:13.213Z,18.80
2019-04-22T02:43:11.819Z,18.90
2019-04-22T02:44:08.337Z,20.00
2019-04-22T02:45:18.833Z,18.60
2019-04-22T02:46:26.734Z,20.00
2019-04-22T02:47:18.415Z,21.40
2019-04-22T02:48:10.384Z,20.30
2019-04-22T02:49:11.646Z,19.50
2019-04-22T02:50:06.613Z,19.50
2019-04-22T02:51:11.987Z,20.10
2019-04-22T02:52:00.058Z,18.10
2019-04-22T02:53:14.019Z,20.20
2019-04-22T02:56:23.062Z,20.50
2019-04-22T02:57:19.423Z,17.50
2019-04-22T02:58:06.248Z,19.20
2019-04-22T02:59:12.418Z,21.30
2019-04-22T03:01:13.900Z,17.50
2019-04-22T03:02:04.795Z,17.80
2019-04-22T03:03:20.836Z,19.20
2019-04-22T03:04:10.972Z,18.70
2019-04-22T03:05:08.880Z,18.50
2019-04-22T03:06:16.462Z,19.90
2019-04-22T03:06:56.162Z,20.60
2019-04-22T03:08:18.691Z,19.70
2019-04-22T03:11:13.536Z,19.90
2019-04-22T03:12:12.271Z,18.20
2019-04-22T03:13:09.591Z,22.30
2019-04-22T03:15:01.478Z,17.80
2019-04-22T03:16:21.695Z,20.90
2019-04-22T03:20:06.181Z,22.10
2019-04-22T03:21:05.363Z,18.80
2019-04-22T03:22:12.761Z,19.70
2019-04-22T03:23:16.973Z,17.90
2019-04-22T03:24:17.554Z,16.50
2019-04-22T03:25:33.009Z,16.90
2019-04-22T03:27:16.244Z,16.70
2019-04-22T03:28:00.940Z,15.00
2019-04-22T03:31:14.776Z,17.00
2019-04-22T03:32:36.113Z,17.10
2019-04-22T03:34:54.578Z,16.40
2019-04-22T03:36:25.052Z,18.40
2019-04-22T03:37:28.958Z,17.70
2019-04-22T03:38:18.475Z,15.90
2019-04-22T03:41:13.372Z,15.40
2019-04-22T03:42:06.829Z,15.80
2019-04-22T03:45:17.017Z,14.30
2019-04-22T03:46:06.294Z,15.10
2019-04-22T03:48:05.352Z,16.10
2019-04-22T03:49:23.220Z,17.60
2019-04-22T03:51:09.271Z,13.20
2019-04-22T03:52:10.757Z,14.80
2019-04-22T03:53:09.728Z,14.10
2019-04-22T03:54:10.938Z,14.60
2019-04-22T03:57:26.522Z,14.10
2019-04-22T03:59:26.878Z,14.40
2019-04-22T04:00:30.285Z,15.30
2019-04-22T04:01:06.480Z,15.20
2019-04-22T04:02:16.163Z,13.00
2019-04-22T04:04:18.541Z,17.00
2019-04-22T04:05:00.832Z,15.90
2019-04-22T04:06:00.289Z,14.00
2019-04-22T04:08:14.657Z,14.70
2019-04-22T04:09:13.693Z,16.80
2019-04-22T04:10:15.104Z,12.70
2019-04-22T04:10:57.864Z,13.40
2019-04-22T04:12:07.740Z,14.90
2019-04-22T04:14:11.938Z,15.10
2019-04-22T04:15:14.103Z,12.90
2019-04-22T04:16:07.085Z,13.40
2019-04-22T04:17:23.069Z,15.50
2019-04-22T04:20:11.089Z,12.60
2019-04-22T04:22:08.035Z,13.90
2019-04-22T04:24:22.476Z,14.80
2019-04-22T04:26:00.945Z,15.00
2019-04-22T04:27:27.162Z,14.70
2019-04-22T04:29:30.405Z,14.60
2019-04-22T04:30:14.843Z,15.80
2019-04-22T04:31:09.981Z,13.90
2019-04-22T04:32:25.189Z,15.10
2019-04-22T04:33:04.821Z,15.60
2019-04-22T04:34:31.145Z,15.50
2019-04-22T04:37:22.933Z,15.30
2019-04-22T04:38:08.236Z,15.40
2019-04-22T04:39:26.708Z,13.60
2019-04-22T04:40:11.652Z,15.40
2019-04-22T04:41:06.972Z,12.90
2019-04-22T04:42:18.779Z,12.40
2019-04-22T04:42:58.363Z,17.40
2019-04-22T04:45:31.999Z,15.60
2019-04-22T04:46:07.277Z,14.90
2019-04-22T04:47:23.573Z,14.10
2019-04-22T04:48:00.816Z,13.80
2019-04-22T04:49:09.369Z,15.20
2019-04-22T04:52:06.592Z,13.50
2019-04-22T04:54:13.107Z,16.20
2019-04-22T04:55:17.450Z,15.00
2019-04-22T04:56:11.949Z,12.60
2019-04-22T04:57:07.495Z,12.60
2019-04-22T04:58:19.988Z,13.20
2019-04-22T05:00:31.942Z,13.50
2019-04-22T05:01:23.380Z,12.50
2019-04-22T05:02:17.540Z,13.90
2019-04-22T05:04:20.962Z,15.70
2019-04-22T05:06:05.964Z,14.10
2019-04-22T05:07:08.725Z,13.60
2019-04-22T05:08:29.347Z,14.90
2019-04-22T05:10:15.657Z,13.60
2019-04-22T05:11:10.970Z,12.40
2019-04-22T05:12:22.526Z,13.00
2019-04-22T05:13:07.166Z,14.20
2019-04-22T05:14:05.449Z,13.90
2019-04-22T05:15:11.554Z,12.70
2019-04-22T05:16:17.370Z,13.00
2019-04-22T05:17:07.587Z,12.10
2019-04-22T05:18:05.763Z,11.90
2019-04-22T05:20:06.838Z,13.60
2019-04-22T05:21:09.267Z,12.40
2019-04-22T05:22:06.049Z,11.20
2019-04-22T05:23:01.821Z,12.60
2019-04-22T05:25:06.337Z,12.50
2019-04-22T05:27:05.601Z,13.40
2019-04-22T05:27:57.878Z,12.10
2019-04-22T05:28:57.618Z,12.50
2019-04-22T05:31:03.371Z,16.30
2019-04-22T05:31:56.859Z,10.70
2019-04-22T05:32:55.346Z,12.80
2019-04-22T05:34:59.712Z,12.70
2019-04-22T05:36:02.651Z,13.40
2019-04-22T05:37:01.283Z,14.00
2019-04-22T05:38:05.958Z,13.10
2019-04-22T05:38:59.828Z,11.60
2019-04-22T05:40:06.575Z,13.80
2019-04-22T05:40:56.129Z,13.20
2019-04-22T05:42:05.610Z,11.80
2019-04-22T05:42:56.360Z,13.00
2019-04-22T05:44:55.389Z,12.30
2019-04-22T05:45:57.877Z,20.90
2019-04-22T05:46:54.428Z,13.40
2019-04-22T05:47:57.477Z,16.10
2019-04-22T05:49:03.236Z,12.40
2019-04-22T05:49:54.664Z,10.20
2019-04-22T05:50:57.918Z,11.00
2019-04-22T05:51:54.987Z,12.30
2019-04-22T05:52:55.311Z,11.00
2019-04-22T05:54:01.325Z,13.10
2019-04-22T05:55:02.037Z,10.90
2019-04-22T05:56:20.709Z,12.80
2019-04-22T05:56:51.438Z,13.80
2019-04-22T05:57:59.126Z,13.00
2019-04-22T05:59:02.438Z,10.50
2019-04-22T06:00:01.588Z,12.80
2019-04-22T06:01:19.862Z,10.50
2019-04-22T06:02:04.775Z,14.50
2019-04-22T06:03:04.076Z,12.40
2019-04-22T06:04:07.328Z,12.80
2019-04-22T06:05:01.807Z,10.70
2019-04-22T06:05:55.030Z,12.60
2019-04-22T06:06:53.590Z,14.40
2019-04-22T06:08:02.131Z,12.50
2019-04-22T06:08:57.331Z,10.30
2019-04-22T06:10:06.658Z,10.20
2019-04-22T06:10:59.119Z,11.90
2019-04-22T06:11:54.500Z,11.50
2019-04-22T06:15:01.484Z,12.30
2019-04-22T06:15:53.134Z,13.10
2019-04-22T06:16:57.224Z,12.80
2019-04-22T06:18:02.476Z,11.60
2019-04-22T06:19:00.953Z,10.30
2019-04-22T06:20:00.630Z,11.30
2019-04-22T06:20:59.477Z,9.70
2019-04-22T06:21:56.019Z,10.00
2019-04-22T06:22:56.865Z,8.10
2019-04-22T06:24:04.614Z,10.40
2019-04-22T06:25:01.066Z,10.70
2019-04-22T06:26:10.083Z,8.90
2019-04-22T06:27:22.017Z,10.50
2019-04-22T06:28:03.447Z,11.40
2019-04-22T06:29:07.365Z,10.30
2019-04-22T06:29:55.417Z,12.00
2019-04-22T06:31:03.653Z,10.40
2019-04-22T06:32:17.495Z,12.80
2019-04-22T06:33:02.742Z,10.70
2019-04-22T06:34:06.228Z,11.20
2019-04-22T06:35:01.990Z,11.40
2019-04-22T06:37:11.666Z,9.30
2019-04-22T06:38:18.922Z,10.90
2019-04-22T06:38:57.144Z,15.10
2019-04-22T06:40:01.103Z,9.30
2019-04-22T06:41:07.227Z,9.10
2019-04-22T06:42:01.125Z,11.80
2019-04-22T06:43:03.197Z,9.30
2019-04-22T06:43:58.621Z,11.20
2019-04-22T06:44:58.194Z,10.00
2019-04-22T06:45:57.695Z,9.90
2019-04-22T06:46:58.050Z,9.80
2019-04-22T06:48:56.351Z,11.50
2019-04-22T06:49:55.634Z,8.50
2019-04-22T06:50:55.386Z,12.70
2019-04-22T06:52:02.410Z,12.60
2019-04-22T06:52:57.280Z,9.40
2019-04-22T06:54:00.118Z,12.80
2019-04-22T06:54:59.569Z,9.20
2019-04-22T06:56:12.559Z,8.80
2019-04-22T06:57:59.903Z,11.10
2019-04-22T06:58:59.416Z,9.40
2019-04-22T07:00:03.604Z,9.90
2019-04-22T07:00:53.195Z,11.20
2019-04-22T07:03:26.934Z,7.70
2019-04-22T07:04:49.437Z,7.70
2019-04-22T07:05:59.539Z,9.30
2019-04-22T07:08:11.603Z,9.50
2019-04-22T07:09:16.007Z,10.10
2019-04-22T07:10:22.205Z,8.40
2019-04-22T07:12:02.221Z,10.30
2019-04-22T07:12:53.937Z,14.00
2019-04-22T07:14:02.539Z,9.10
2019-04-22T07:14:57.703Z,10.80
2019-04-22T07:16:13.320Z,9.60
2019-04-22T07:16:56.453Z,8.50
2019-04-22T07:18:03.053Z,9.20
2019-04-22T07:18:56.654Z,8.80
2019-04-22T07:19:57.833Z,10.40
2019-04-22T07:20:56.647Z,10.30
2019-04-22T07:21:57.902Z,9.20
2019-04-22T07:23:05.469Z,9.20
2019-04-22T07:24:17.848Z,7.20
2019-04-22T07:24:59.022Z,9.90
2019-04-22T07:25:52.215Z,9.90
2019-04-22T07:27:00.250Z,7.80
2019-04-22T07:28:01.053Z,9.10
2019-04-22T07:28:58.259Z,8.90
2019-04-22T07:30:03.904Z,10.70
2019-04-22T07:30:57.747Z,8.20
2019-04-22T07:32:05.015Z,11.80
2019-04-22T07:33:12.622Z,11.20
2019-04-22T07:33:58.337Z,8.10
2019-04-22T07:35:02.001Z,9.50
2019-04-22T07:36:34.325Z,10.60
2019-04-22T07:37:04.933Z,9.50
2019-04-22T07:38:00.619Z,8.90
2019-04-22T07:39:01.730Z,8.60
2019-04-22T07:39:51.360Z,8.40
2019-04-22T07:40:56.153Z,13.50
2019-04-22T07:41:59.183Z,10.20
2019-04-22T07:43:02.588Z,9.10
2019-04-22T07:44:59.258Z,8.30
2019-04-22T07:45:53.738Z,8.20
2019-04-22T07:47:07.808Z,9.00
2019-04-22T07:48:03.184Z,8.40
2019-04-22T07:49:00.009Z,9.90
2019-04-22T07:50:02.666Z,8.60
2019-04-22T07:51:58.777Z,10.40
2019-04-22T07:52:51.794Z,8.10
2019-04-22T07:53:56.090Z,11.30
2019-04-22T07:54:59.510Z,8.10
2019-04-22T07:56:01.367Z,9.40
2019-04-22T07:57:07.514Z,8.00
2019-04-22T07:58:02.069Z,10.80
2019-04-22T07:58:58.696Z,9.90
2019-04-22T07:59:54.193Z,8.40
2019-04-22T08:00:55.653Z,10.70
2019-04-22T08:01:55.939Z,13.60
2019-04-22T08:02:59.725Z,11.80
2019-04-22T08:04:07.527Z,9.40
2019-04-22T08:06:06.155Z,12.30
2019-04-22T08:06:57.539Z,9.20
2019-04-22T08:07:59.211Z,10.10
2019-04-22T08:09:01.809Z,9.00
2019-04-22T08:10:14.327Z,7.90
2019-04-22T08:10:57.964Z,10.30
2019-04-22T08:11:52.497Z,10.40
2019-04-22T08:12:57.927Z,9.80
2019-04-22T08:13:51.271Z,9.60
2019-04-22T08:14:58.376Z,8.30
2019-04-22T08:15:58.779Z,9.00
2019-04-22T08:17:02.861Z,17.50
2019-04-22T08:18:15.724Z,8.30
2019-04-22T08:20:54.119Z,9.20
2019-04-22T08:21:56.947Z,9.90
2019-04-22T08:23:02.858Z,7.30
2019-04-22T08:23:56.491Z,10.40
2019-04-22T08:24:58.564Z,8.10
2019-04-22T08:25:55.728Z,10.60
2019-04-22T08:26:58.131Z,9.60
2019-04-22T08:27:57.096Z,7.80
2019-04-22T08:29:03.411Z,8.20
2019-04-22T08:30:07.013Z,8.30
2019-04-22T08:31:04.816Z,9.30
2019-04-22T08:31:56.527Z,7.70
2019-04-22T08:33:04.367Z,8.90
2019-04-22T08:33:59.482Z,7.60
2019-04-22T08:34:58.091Z,9.00
2019-04-22T08:36:10.513Z,8.20
2019-04-22T08:37:25.358Z,8.20
2019-04-22T08:40:03.524Z,7.90
2019-04-22T08:40:56.975Z,9.20
2019-04-22T08:41:55.508Z,8.10
2019-04-22T08:45:57.051Z,7.70
2019-04-22T08:47:04.332Z,7.50
2019-04-22T08:47:54.863Z,8.70
2019-04-22T08:48:55.768Z,11.00
2019-04-22T08:50:03.131Z,7.30
2019-04-22T08:50:58.543Z,7.60
2019-04-22T08:51:56.226Z,8.40
2019-04-22T08:53:00.700Z,7.10
2019-04-22T08:54:57.353Z,6.50
2019-04-22T08:55:56.739Z,10.80
2019-04-22T08:56:50.690Z,10.40
2019-04-22T08:59:07.090Z,8.10
2019-04-22T09:00:00.263Z,9.10
2019-04-22T09:00:56.989Z,7.90
2019-04-22T09:02:04.870Z,8.80
2019-04-22T09:03:00.627Z,8.20
2019-04-22T09:03:58.405Z,6.90
2019-04-22T09:04:58.404Z,10.40
2019-04-22T09:06:04.863Z,7.70
2019-04-22T09:07:10.492Z,8.00
2019-04-22T09:07:52.557Z,7.80
2019-04-22T09:09:55.822Z,6.90
2019-04-22T09:10:57.127Z,7.30
2019-04-22T09:11:59.991Z,11.10
2019-04-22T09:13:56.066Z,7.10
2019-04-22T09:14:49.424Z,7.50
2019-04-22T09:15:55.397Z,9.50
2019-04-22T09:17:02.274Z,7.70
2019-04-22T09:18:02.436Z,8.20
2019-04-22T09:18:56.089Z,7.50
2019-04-22T09:19:58.744Z,8.20
2019-04-22T09:21:08.855Z,9.00
2019-04-22T09:22:03.419Z,9.10
2019-04-22T09:23:58.306Z,8.90
2019-04-22T09:24:54.038Z,5.90
2019-04-22T09:25:53.522Z,8.20
2019-04-22T09:26:54.237Z,7.70
2019-04-22T09:27:55.817Z,10.90
2019-04-22T09:28:59.396Z,7.60
2019-04-22T09:30:13.408Z,8.50
2019-04-22T09:30:56.658Z,9.40
2019-04-22T09:32:02.877Z,7.10
2019-04-22T09:33:06.048Z,7.10
2019-04-22T09:33:53.370Z,11.10
2019-04-22T09:34:54.587Z,7.20
2019-04-22T09:36:00.203Z,10.30
2019-04-22T09:36:59.467Z,6.40
2019-04-22T09:38:52.885Z,10.90
2019-04-22T09:40:03.294Z,7.70
2019-04-22T09:40:53.536Z,6.70
2019-04-22T09:42:02.529Z,6.60
2019-04-22T09:42:56.520Z,10.50
2019-04-22T09:43:57.077Z,8.90
2019-04-22T09:45:04.671Z,8.50
2019-04-22T09:45:53.273Z,7.80
2019-04-22T09:46:51.962Z,8.70
2019-04-22T09:48:59.045Z,6.50
2019-04-22T09:50:03.613Z,8.30
2019-04-22T09:50:54.056Z,12.40
2019-04-22T09:51:58.725Z,8.10
2019-04-22T09:52:54.872Z,8.80
2019-04-22T09:54:04.161Z,6.60
2019-04-22T09:55:00.187Z,7.30
2019-04-22T09:55:57.157Z,8.10
2019-04-22T09:56:56.506Z,6.00
2019-04-22T09:57:55.785Z,6.40
2019-04-22T09:58:58.508Z,7.50
2019-04-22T09:59:57.899Z,6.10
2019-04-22T10:01:03.323Z,8.60
2019-04-22T10:02:07.786Z,7.00
2019-04-22T10:04:00.920Z,7.60
2019-04-22T10:06:06.149Z,6.30
2019-04-22T10:07:15.285Z,8.80
2019-04-22T10:08:02.771Z,10.00
2019-04-22T10:09:12.695Z,7.50
2019-04-22T10:11:00.558Z,7.80
2019-04-22T10:12:10.175Z,7.40
2019-04-22T10:12:57.462Z,8.40
2019-04-22T10:14:55.869Z,6.90
2019-04-22T10:15:59.030Z,7.00
2019-04-22T10:16:55.867Z,10.50
2019-04-22T10:17:58.219Z,7.40
2019-04-22T10:19:00.147Z,12.70
2019-04-22T10:19:55.710Z,6.10
2019-04-22T10:20:54.411Z,8.60
2019-04-22T10:22:12.160Z,7.40
2019-04-22T10:23:04.033Z,9.70
2019-04-22T10:23:59.981Z,7.60
2019-04-22T10:24:56.937Z,7.00
2019-04-22T10:25:52.267Z,8.00
2019-04-22T10:26:54.936Z,10.40
2019-04-22T10:27:58.305Z,7.70
2019-04-22T10:29:00.505Z,11.20
2019-04-22T10:30:00.119Z,8.90
2019-04-22T10:31:14.501Z,6.80
2019-04-22T10:31:55.846Z,8.00
2019-04-22T10:32:52.313Z,6.40
2019-04-22T10:33:45.004Z,9.60
2019-04-22T10:34:38.759Z,6.20
2019-04-22T10:35:31.083Z,6.90
2019-04-22T10:36:28.173Z,6.90
2019-04-22T10:37:28.205Z,5.30
2019-04-22T10:38:28.381Z,11.80
2019-04-22T10:39:39.926Z,7.10
2019-04-22T10:40:29.109Z,6.70
2019-04-22T10:41:28.466Z,8.10
2019-04-22T10:42:29.257Z,6.00
2019-04-22T10:43:29.394Z,7.90
2019-04-22T10:44:28.895Z,6.10
2019-04-22T10:45:28.320Z,7.50
2019-04-22T10:46:28.436Z,5.80
2019-04-22T10:47:28.052Z,7.50
2019-04-22T10:48:28.359Z,6.50
2019-04-22T10:49:28.765Z,8.50
2019-04-22T10:50:28.533Z,6.30
2019-04-22T10:51:28.691Z,7.40
2019-04-22T10:52:27.996Z,7.00
2019-04-22T10:53:29.218Z,6.90
2019-04-22T10:54:29.323Z,7.20
2019-04-22T10:55:27.943Z,9.50
2019-04-22T10:56:27.934Z,8.60
2019-04-22T10:57:27.928Z,10.90
2019-04-22T10:58:28.823Z,6.70
2019-04-22T10:59:28.840Z,6.40
2019-04-22T11:00:29.058Z,7.20
2019-04-22T11:01:27.878Z,5.90
2019-04-22T11:02:27.866Z,6.10
2019-04-22T11:03:28.299Z,7.90
2019-04-22T11:04:28.075Z,5.90
2019-04-22T11:05:28.179Z,5.50
2019-04-22T11:06:27.858Z,9.60
2019-04-22T11:07:36.195Z,7.90
2019-04-22T11:08:38.489Z,9.10
2019-04-22T11:09:29.145Z,6.30
2019-04-22T11:10:44.017Z,7.80
2019-04-22T11:11:40.649Z,6.10
2019-04-22T11:12:32.185Z,7.10
2019-04-22T11:13:28.742Z,5.50
2019-04-22T11:14:28.594Z,7.80
2019-04-22T11:15:28.653Z,5.80
2019-04-22T11:16:27.929Z,7.40
2019-04-22T11:17:27.700Z,7.00
2019-04-22T11:18:27.729Z,8.00
2019-04-22T11:19:27.853Z,10.80
2019-04-22T11:20:27.666Z,12.10
2019-04-22T11:21:27.672Z,11.20
2019-04-22T11:22:32.221Z,5.90
2019-04-22T11:23:28.936Z,6.90
2019-04-22T11:24:28.503Z,5.00
2019-04-22T11:25:27.797Z,6.90
2019-04-22T11:26:28.252Z,7.90
2019-04-22T11:27:28.672Z,5.40
2019-04-22T11:28:27.827Z,6.20
2019-04-22T11:29:27.906Z,5.60
2019-04-22T11:30:28.235Z,8.90
2019-04-22T11:31:28.287Z,5.60
2019-04-22T11:32:28.600Z,7.50
2019-04-22T11:33:27.525Z,7.80
2019-04-22T11:34:28.975Z,6.90
2019-04-22T11:35:27.953Z,7.50
2019-04-22T11:36:30.569Z,5.00
2019-04-22T11:37:28.307Z,9.20
2019-04-22T11:38:28.736Z,9.50
2019-04-22T11:39:30.781Z,5.20
2019-04-22T11:40:34.923Z,5.40
2019-04-22T11:41:28.465Z,5.50
2019-04-22T11:42:28.120Z,7.50
2019-04-22T11:43:28.457Z,9.90
2019-04-22T11:44:27.669Z,6.40
2019-04-22T11:45:27.406Z,9.50
2019-04-22T11:46:27.388Z,6.80
2019-04-22T11:47:27.511Z,5.60
2019-04-22T11:48:27.362Z,6.30
2019-04-22T11:49:27.885Z,7.20
2019-04-22T11:50:28.077Z,8.10
2019-04-22T11:51:27.628Z,7.50
2019-04-22T11:52:28.710Z,8.70
2019-04-22T11:53:27.341Z,6.10
2019-04-22T11:54:28.606Z,10.90
2019-04-22T11:55:28.657Z,8.50
2019-04-22T11:56:27.271Z,6.90
2019-04-22T11:57:28.722Z,9.90
2019-04-22T11:58:28.707Z,6.50
2019-04-22T11:59:28.836Z,7.10
2019-04-22T12:00:27.262Z,7.20
2019-04-22T12:01:28.641Z,8.80
2019-04-22T12:02:27.287Z,8.50
2019-04-22T12:03:28.643Z,7.30
2019-04-22T12:04:27.634Z,10.60
2019-04-22T12:05:28.132Z,6.70
2019-04-22T12:06:28.116Z,6.40
2019-04-22T12:07:29.629Z,5.20
2019-04-22T12:08:27.209Z,6.40
2019-04-22T12:09:27.969Z,6.60
2019-04-22T12:10:34.663Z,13.30
2019-04-22T12:11:28.275Z,5.70
2019-04-22T12:12:27.839Z,5.90
2019-04-22T12:13:28.228Z,6.60
2019-04-22T12:14:27.776Z,15.50
2019-04-22T12:15:27.060Z,8.30
2019-04-22T12:16:27.388Z,6.20
2019-04-22T12:17:27.042Z,5.50
2019-04-22T12:18:27.197Z,7.70
2019-04-22T12:19:27.156Z,7.70
2019-04-22T12:20:27.549Z,7.70
2019-04-22T12:21:27.011Z,7.00
2019-04-22T12:22:27.018Z,6.60
2019-04-22T12:23:27.364Z,5.80
2019-04-22T12:24:28.137Z,5.30
2019-04-22T12:25:36.115Z,5.30
2019-04-22T12:26:28.686Z,4.80
2019-04-22T12:27:28.766Z,6.10
2019-04-22T12:28:26.927Z,8.40
2019-04-22T12:29:27.013Z,5.70
2019-04-22T12:30:27.897Z,7.80
2019-04-22T12:31:27.273Z,5.10
2019-04-22T12:32:27.442Z,7.20
2019-04-22T12:33:27.720Z,6.20
2019-04-22T12:34:26.858Z,7.50
2019-04-22T12:35:28.295Z,7.00
2019-04-22T12:36:26.844Z,5.90
2019-04-22T12:37:35.677Z,7.80
2019-04-22T12:38:29.388Z,5.50
2019-04-22T12:39:27.463Z,5.00
2019-04-22T12:40:37.344Z,6.90
2019-04-22T12:41:27.850Z,7.10
2019-04-22T12:42:27.135Z,6.80
2019-04-22T12:43:27.919Z,5.70
2019-04-22T12:44:26.742Z,7.10
2019-04-22T12:45:26.743Z,7.90
2019-04-22T12:46:28.048Z,6.30
2019-04-22T12:47:28.271Z,5.80
2019-04-22T12:48:27.440Z,7.50
2019-04-22T12:49:28.034Z,4.80
2019-04-22T12:50:31.848Z,4.90
2019-04-22T12:51:29.125Z,11.10
2019-04-22T12:52:36.919Z,10.40
2019-04-22T12:53:28.120Z,5.60
2019-04-22T12:54:26.948Z,4.40
2019-04-22T12:55:27.876Z,6.60
2019-04-22T12:56:27.836Z,6.60
2019-04-22T12:57:26.613Z,5.90
2019-04-22T12:58:27.683Z,5.90
2019-04-22T12:59:27.979Z,6.30
2019-04-22T13:00:26.690Z,5.00
2019-04-22T13:01:26.904Z,7.50
2019-04-22T13:02:27.025Z,5.70
2019-04-22T13:03:26.532Z,8.40
2019-04-22T13:04:27.867Z,5.90
2019-04-22T13:05:26.936Z,7.50
2019-04-22T13:06:27.801Z,4.00
2019-04-22T13:07:26.489Z,5.80
2019-04-22T13:08:27.625Z,5.00
2019-04-22T13:09:27.491Z,8.50
2019-04-22T13:10:39.092Z,5.90
2019-04-22T13:11:30.864Z,7.10
2019-04-22T13:12:28.967Z,6.00
2019-04-22T13:13:27.171Z,5.70
2019-04-22T13:14:27.391Z,4.90
2019-04-22T13:15:26.780Z,5.70
2019-04-22T13:16:26.991Z,4.10
2019-04-22T13:17:27.277Z,4.60
2019-04-22T13:18:35.260Z,21.10
2019-04-22T13:19:28.363Z,7.80
2019-04-22T13:20:26.344Z,9.70
2019-04-22T13:21:26.913Z,9.40
2019-04-22T13:22:27.052Z,7.20
2019-04-22T13:23:27.531Z,4.60
2019-04-22T13:24:27.868Z,5.20
2019-04-22T13:25:28.499Z,5.10
2019-04-22T13:26:27.200Z,5.70
2019-04-22T13:27:26.885Z,6.70
2019-04-22T13:28:27.254Z,6.40
2019-04-22T13:29:27.613Z,7.20
2019-04-22T13:30:26.388Z,7.20
2019-04-22T13:31:26.863Z,6.00
2019-04-22T13:32:26.895Z,9.60
2019-04-22T13:33:26.217Z,6.40
2019-04-22T13:34:33.747Z,4.10
2019-04-22T13:35:28.047Z,4.70
2019-04-22T13:36:27.882Z,5.80
2019-04-22T13:37:26.187Z,5.40
2019-04-22T13:38:27.013Z,4.30
2019-04-22T13:39:27.122Z,5.30
2019-04-22T13:40:26.121Z,4.30
2019-04-22T13:41:35.790Z,3.90
2019-04-22T13:42:27.537Z,6.10
2019-04-22T13:43:27.009Z,5.10
2019-04-22T13:44:26.111Z,5.70
2019-04-22T13:45:27.346Z,6.10
2019-04-22T13:46:30.384Z,7.40
2019-04-22T13:47:42.339Z,3.50
2019-04-22T13:48:46.274Z,4.60
2019-04-22T13:49:59.742Z,5.30
2019-04-22T13:51:01.007Z,6.00
2019-04-22T13:52:03.643Z,3.70
2019-04-22T13:53:21.949Z,6.80
2019-04-22T13:55:52.947Z,3.70
2019-04-22T13:56:47.994Z,5.70
2019-04-22T13:57:42.416Z,5.70
2019-04-22T13:58:39.530Z,4.70
2019-04-22T13:59:33.237Z,8.70
2019-04-22T14:00:27.053Z,4.80
2019-04-22T14:01:25.942Z,5.20
2019-04-22T14:02:34.752Z,5.70
2019-04-22T14:03:26.639Z,4.90
2019-04-22T14:04:25.870Z,5.60
2019-04-22T14:05:26.913Z,4.20
2019-04-22T14:06:26.908Z,5.90
2019-04-22T14:07:25.978Z,4.10
2019-04-22T14:08:26.933Z,6.40
2019-04-22T14:09:26.428Z,14.50
2019-04-22T14:10:26.935Z,3.20
2019-04-22T14:11:35.110Z,5.70
2019-04-22T14:12:26.821Z,4.30
2019-04-22T14:13:25.903Z,4.20
2019-04-22T14:14:26.065Z,4.50
2019-04-22T14:15:25.742Z,5.20
2019-04-22T14:16:26.908Z,9.30
2019-04-22T14:17:26.993Z,5.30
2019-04-22T14:18:25.721Z,6.90
2019-04-22T14:19:26.046Z,10.20
2019-04-22T14:20:28.790Z,15.80
2019-04-22T14:21:27.029Z,15.50
2019-04-22T14:22:26.365Z,14.50
2019-04-22T14:23:26.777Z,9.10
2019-04-22T14:24:26.069Z,6.00
2019-04-22T14:25:25.624Z,7.70
2019-04-22T14:26:27.095Z,6.20
2019-04-22T14:27:34.527Z,3.50
2019-04-22T14:28:28.535Z,4.50
2019-04-22T14:29:26.075Z,4.50
2019-04-22T14:30:26.329Z,5.30
2019-04-22T14:31:26.727Z,4.10
2019-04-22T14:32:29.327Z,9.50
2019-04-22T14:33:27.831Z,6.00
2019-04-22T14:34:26.592Z,8.40
2019-04-22T14:35:27.020Z,4.20
2019-04-22T14:36:25.528Z,8.50
2019-04-22T14:37:25.492Z,4.10
2019-04-22T14:38:25.907Z,3.30